createdAt,value
2022-11-12T08:38:37.448Z,17.83
2022-11-12T08:41:23.018Z,22.58
2022-11-12T08:44:08.834Z,45.58
2022-11-12T08:46:54.249Z,23.38
2022-11-12T08:49:42.586Z,25.30
2022-11-12T08:52:32.100Z,28.92
2022-11-12T08:55:17.702Z,28.10
2022-11-12T08:58:04.623Z,30.10
2022-11-12T09:00:50.936Z,32.47
2022-11-12T09:03:36.211Z,24.80
2022-11-12T09:06:21.928Z,23.90
2022-11-12T09:09:07.467Z,22.40
2022-11-12T09:11:52.901Z,26.40
2022-11-12T09:14:38.272Z,42.00
2022-11-12T09:17:23.850Z,31.88
2022-11-12T09:20:09.571Z,26.17
2022-11-12T09:22:59.543Z,25.17
2022-11-12T09:25:45.243Z,27.05
2022-11-12T09:28:30.838Z,29.00
2022-11-12T09:31:15.824Z,27.33
2022-11-12T09:34:01.186Z,32.45
2022-11-12T09:36:46.583Z,28.13
2022-11-12T09:39:31.925Z,23.95
2022-11-12T09:42:22.803Z,29.58
2022-11-12T09:45:19.079Z,35.95
2022-11-12T09:48:09.024Z,27.13
2022-11-12T09:51:13.433Z,24.45
2022-11-12T09:54:21.503Z,38.30
2022-11-12T09:57:11.986Z,35.33
2022-11-12T09:59:57.552Z,32.45
2022-11-12T10:03:00.934Z,34.60
2022-11-12T10:05:52.301Z,24.50
2022-11-12T10:08:55.596Z,28.85
2022-11-12T10:15:37.250Z,26.08
2022-11-12T10:18:50.175Z,26.33
2022-11-12T10:21:53.503Z,20.88
2022-11-12T10:27:41.644Z,22.27
2022-11-12T10:30:26.987Z,28.52
2022-11-12T10:33:15.116Z,27.02
2022-11-12T10:36:17.214Z,21.92
2022-11-12T10:39:02.823Z,30.67
2022-11-12T10:42:06.552Z,31.70
2022-11-12T10:44:54.405Z,44.22
2022-11-12T10:47:42.975Z,22.02
2022-11-12T10:50:42.709Z,24.75
2022-11-12T10:53:39.267Z,36.63
2022-11-12T10:56:29.453Z,34.90
2022-11-12T10:59:19.021Z,28.10
2022-11-12T11:02:17.121Z,29.33
2022-11-12T11:05:39.732Z,28.17
2022-11-12T11:08:46.807Z,23.38
2022-11-12T11:11:32.394Z,25.65
2022-11-12T11:14:23.885Z,29.10
2022-11-12T11:17:17.335Z,27.80
2022-11-12T11:20:04.838Z,31.15
2022-11-12T11:23:13.211Z,35.38
2022-11-12T11:26:07.676Z,32.17
2022-11-12T11:29:14.129Z,30.58
2022-11-12T11:32:24.500Z,28.00
2022-11-12T11:35:31.489Z,39.42
2022-11-12T11:38:39.634Z,30.08
2022-11-12T11:41:50.365Z,23.83
2022-11-12T11:44:47.402Z,30.38
2022-11-12T11:48:00.549Z,32.15
2022-11-12T11:50:57.982Z,31.85
2022-11-12T11:53:43.051Z,34.20
2022-11-12T11:56:42.276Z,36.65
2022-11-12T12:00:05.993Z,32.35
2022-11-12T12:05:41.818Z,36.13
2022-11-12T12:08:59.071Z,26.40
2022-11-12T12:12:16.147Z,29.15
2022-11-12T12:15:16.475Z,35.58
2022-11-12T12:18:26.046Z,36.08
2022-11-12T12:21:19.083Z,38.60
2022-11-12T12:24:16.731Z,27.27
2022-11-12T12:27:12.498Z,25.38
2022-11-12T12:30:09.370Z,31.98
2022-11-12T12:33:02.558Z,30.13
2022-11-12T12:36:02.182Z,30.27
2022-11-12T12:39:19.482Z,33.75
2022-11-12T12:42:09.177Z,30.83
2022-11-12T12:45:05.314Z,33.78
2022-11-12T12:47:54.496Z,27.48
2022-11-12T12:50:42.329Z,29.10
2022-11-12T12:53:27.778Z,25.98
2022-11-12T12:56:13.189Z,25.98
2022-11-12T12:59:03.611Z,29.92
2022-11-12T13:02:01.505Z,37.70
2022-11-12T13:04:52.533Z,34.40
2022-11-12T13:07:49.153Z,35.75
2022-11-12T13:10:45.779Z,43.58
2022-11-12T13:13:36.400Z,31.08
2022-11-12T13:17:05.440Z,30.45
2022-11-12T13:19:53.681Z,29.17
2022-11-12T13:22:39.199Z,28.33
2022-11-12T13:25:30.511Z,41.30
2022-11-12T13:28:16.036Z,35.80
2022-11-12T13:31:03.503Z,31.35
2022-11-12T13:33:49.524Z,31.10
2022-11-12T13:36:35.035Z,28.73
2022-11-12T13:39:22.141Z,31.52
2022-11-12T13:42:35.735Z,30.95
2022-11-12T13:45:25.027Z,38.30
2022-11-12T13:48:36.278Z,42.25
2022-11-12T13:51:34.337Z,29.33
2022-11-12T13:54:39.108Z,29.83
2022-11-12T13:57:28.277Z,32.10
2022-11-12T14:00:23.704Z,35.03
2022-11-12T14:03:14.995Z,32.90
2022-11-12T14:06:06.744Z,30.83
2022-11-12T14:09:06.096Z,31.02
2022-11-12T14:11:53.906Z,37.40
2022-11-12T14:14:52.513Z,29.60
2022-11-12T14:18:02.747Z,31.80
2022-11-12T14:20:49.208Z,33.70
2022-11-12T14:23:38.070Z,28.48
2022-11-12T14:26:38.860Z,35.08
2022-11-12T14:29:24.462Z,28.15
2022-11-12T14:32:09.894Z,32.08
2022-11-12T14:34:55.129Z,33.97
2022-11-12T14:37:50.013Z,39.63
2022-11-12T14:40:57.354Z,46.35
2022-11-12T14:44:11.152Z,32.08
2022-11-12T14:46:58.931Z,41.30
2022-11-12T14:49:47.863Z,30.23
2022-11-12T14:52:37.587Z,43.67
2022-11-12T14:55:26.586Z,42.92
2022-11-12T14:58:16.637Z,36.92
2022-11-12T15:04:45.114Z,38.55
2022-11-12T15:07:33.428Z,56.47
2022-11-12T15:10:36.378Z,81.47
2022-11-12T15:13:24.863Z,61.88
2022-11-12T15:16:16.347Z,61.15
2022-11-12T15:19:26.449Z,61.63
2022-11-12T15:22:20.940Z,61.72
2022-11-12T15:25:31.794Z,55.88
2022-11-12T15:28:23.584Z,50.67
2022-11-12T15:31:18.859Z,45.10
2022-11-12T15:34:25.754Z,44.58
2022-11-12T15:37:19.802Z,42.53
2022-11-12T15:40:15.886Z,44.05
2022-11-12T15:43:02.163Z,48.08
2022-11-12T15:45:52.536Z,50.50
2022-11-12T15:48:38.119Z,38.67
2022-11-12T15:51:23.590Z,38.22
2022-11-12T15:54:08.902Z,61.42
2022-11-12T15:56:55.213Z,43.58
2022-11-12T15:59:41.167Z,31.02
2022-11-12T16:02:26.648Z,40.95
2022-11-12T16:05:17.123Z,37.10
2022-11-12T16:08:02.712Z,32.65
2022-11-12T16:10:48.688Z,43.90
2022-11-12T16:13:34.497Z,39.13
2022-11-12T16:16:20.102Z,37.88
2022-11-12T16:19:14.544Z,37.97
2022-11-12T16:22:00.964Z,43.25
2022-11-12T16:24:46.077Z,37.22
2022-11-12T16:27:32.792Z,36.92
2022-11-12T16:30:24.765Z,35.65
2022-11-12T16:33:14.631Z,41.25
2022-11-12T16:35:59.672Z,35.90
2022-11-12T16:38:46.580Z,39.13
2022-11-12T16:41:31.714Z,36.30
2022-11-12T16:44:17.161Z,39.75
2022-11-12T16:47:04.269Z,41.92
2022-11-12T16:49:49.610Z,36.20
2022-11-12T16:52:34.974Z,36.97
2022-11-12T16:55:21.385Z,38.88
2022-11-12T16:58:06.726Z,44.88
2022-11-12T17:00:52.590Z,36.20
2022-11-12T17:03:37.912Z,40.33
2022-11-12T17:06:32.164Z,35.13
2022-11-12T17:09:17.454Z,37.75
2022-11-12T17:12:02.601Z,37.65
2022-11-12T17:14:48.082Z,41.40
2022-11-12T17:17:33.237Z,37.53
2022-11-12T17:20:18.680Z,39.10
2022-11-12T17:23:04.030Z,36.85
2022-11-12T17:25:59.128Z,38.08
2022-11-12T17:28:45.036Z,39.90
2022-11-12T17:31:30.446Z,36.63
2022-11-12T17:34:18.660Z,52.50
2022-11-12T17:37:03.803Z,35.17
2022-11-12T17:39:49.286Z,42.13
2022-11-12T17:42:34.943Z,38.95
2022-11-12T17:45:20.411Z,37.70
2022-11-12T17:48:05.990Z,43.72
2022-11-12T17:50:53.498Z,54.92
2022-11-12T17:53:39.277Z,46.17
2022-11-12T17:56:24.682Z,43.05
2022-11-12T17:59:09.873Z,47.10
2022-11-12T18:01:55.285Z,49.20
2022-11-12T18:04:40.857Z,46.03
2022-11-12T18:07:26.569Z,47.80
2022-11-12T18:10:15.620Z,43.55
2022-11-12T18:13:03.900Z,43.15
2022-11-12T18:15:49.446Z,43.60
2022-11-12T18:18:34.840Z,44.95
2022-11-12T18:21:22.971Z,53.60
2022-11-12T18:24:14.378Z,50.80
2022-11-12T18:26:59.867Z,51.28
2022-11-12T18:29:46.509Z,43.10
2022-11-12T18:32:32.423Z,59.97
2022-11-12T18:35:17.524Z,51.83
2022-11-12T18:38:03.026Z,44.90
2022-11-12T18:40:48.365Z,52.78
2022-11-12T18:43:35.462Z,48.60
2022-11-12T18:46:21.326Z,51.97
2022-11-12T18:49:06.917Z,53.90
2022-11-12T18:51:52.452Z,50.08
2022-11-12T18:54:40.224Z,51.80
2022-11-12T18:57:25.585Z,73.43
2022-11-12T19:00:12.074Z,52.42
2022-11-12T19:02:57.584Z,42.15
2022-11-12T19:05:43.331Z,40.15
2022-11-12T19:08:29.055Z,59.30
2022-11-12T19:11:16.872Z,52.00
2022-11-12T19:14:02.050Z,46.38
2022-11-12T19:16:47.498Z,44.47
2022-11-12T19:19:32.915Z,43.60
2022-11-12T19:22:18.439Z,45.10
2022-11-12T19:25:03.952Z,47.45
2022-11-12T19:27:49.058Z,49.50
2022-11-12T19:30:34.452Z,50.85
2022-11-12T19:33:19.940Z,63.85
2022-11-12T19:36:06.994Z,66.05
2022-11-12T19:39:00.129Z,68.53
2022-11-12T19:41:45.769Z,82.35
2022-11-12T19:44:31.081Z,58.33
2022-11-12T19:47:16.546Z,61.33
2022-11-12T19:50:02.176Z,65.30
2022-11-12T19:52:47.403Z,75.10
2022-11-12T19:55:38.641Z,63.00
2022-11-12T19:58:25.711Z,63.60
2022-11-12T20:01:14.338Z,69.35
2022-11-12T20:04:00.006Z,64.45
2022-11-12T20:06:45.556Z,49.50
2022-11-12T20:09:31.947Z,49.22
2022-11-12T20:12:17.240Z,60.95
2022-11-12T20:15:02.818Z,62.55
2022-11-12T20:17:48.191Z,80.07
2022-11-12T20:20:33.761Z,61.35
2022-11-12T20:23:19.260Z,45.80
2022-11-12T20:26:07.341Z,46.22
2022-11-12T20:28:53.511Z,56.42
2022-11-12T20:31:41.951Z,66.78
2022-11-12T20:34:27.399Z,52.70
2022-11-12T20:37:13.055Z,52.63
2022-11-12T20:39:58.881Z,51.63
2022-11-12T20:42:45.843Z,39.97
2022-11-12T20:45:31.032Z,39.45
2022-11-12T20:48:16.502Z,40.35
2022-11-12T20:51:22.647Z,37.55
2022-11-12T20:54:10.128Z,38.80
2022-11-12T20:56:56.114Z,42.67
2022-11-12T20:59:41.538Z,44.40
2022-11-12T21:02:26.991Z,52.30
2022-11-12T21:05:15.049Z,46.25
2022-11-12T21:08:00.332Z,52.40
2022-11-12T21:10:49.710Z,41.85
2022-11-12T21:13:36.401Z,40.17
2022-11-12T21:16:21.938Z,42.33
2022-11-12T21:19:07.503Z,41.92
2022-11-12T21:21:53.348Z,40.45
2022-11-12T21:24:39.087Z,41.65
2022-11-12T21:27:26.644Z,41.42
2022-11-12T21:30:15.156Z,42.28
2022-11-12T21:33:00.672Z,40.88
2022-11-12T21:35:53.368Z,32.90
2022-11-12T21:38:41.774Z,34.08
2022-11-12T21:41:28.639Z,35.30
2022-11-12T21:44:13.730Z,34.97
2022-11-12T21:46:59.182Z,36.00
2022-11-12T21:49:44.659Z,43.33
2022-11-12T21:52:30.306Z,44.47
2022-11-12T21:55:15.337Z,45.88
2022-11-12T21:58:01.249Z,32.95
2022-11-12T22:00:46.634Z,32.97
2022-11-12T22:03:32.018Z,38.03
2022-11-12T22:06:19.233Z,39.40
2022-11-12T22:09:05.426Z,34.70
2022-11-12T22:11:50.791Z,39.70
2022-11-12T22:14:36.270Z,33.58
2022-11-12T22:17:21.664Z,56.55
2022-11-12T22:20:07.869Z,42.53
2022-11-12T22:22:53.712Z,43.78
2022-11-12T22:25:41.270Z,44.10
2022-11-12T22:28:27.199Z,40.92
2022-11-12T22:31:15.258Z,38.88
2022-11-12T22:34:02.364Z,36.58
2022-11-12T22:36:47.656Z,35.88
2022-11-12T22:39:33.076Z,37.47
2022-11-12T22:42:18.593Z,34.40
2022-11-12T22:45:04.231Z,30.55
2022-11-12T22:47:49.520Z,40.03
2022-11-12T22:50:35.069Z,41.17
2022-11-12T22:53:20.563Z,40.22
